sensor_id;sensor_type;location;lat;lon;timestamp;pressure;altitude;pressure_sealevel;temperature;humidity
26436;BME280;15351;52.408;16.826;2023-05-08T00:00:12;102130.88;;;8.14;66.18
26436;BME280;15351;52.408;16.826;2023-05-08T00:02:59;102131.25;;;8.11;66.24
26436;BME280;15351;52.408;16.826;2023-05-08T00:05:26;102132.79;;;8.10;66.42
26436;BME280;15351;52.408;16.826;2023-05-08T00:07:53;102127.92;;;8.10;66.63
26436;BME280;15351;52.408;16.826;2023-05-08T00:10:29;102125.66;;;8.09;66.71
26436;BME280;15351;52.408;16.826;2023-05-08T00:12:56;102125.90;;;8.09;66.59
26436;BME280;15351;52.408;16.826;2023-05-08T00:15:23;102123.68;;;8.07;66.73
26436;BME280;15351;52.408;16.826;2023-05-08T00:17:49;102126.02;;;8.07;66.75
26436;BME280;15351;52.408;16.826;2023-05-08T00:20:18;102128.83;;;8.10;66.94
26436;BME280;15351;52.408;16.826;2023-05-08T00:22:44;102127.73;;;8.10;66.96
26436;BME280;15351;52.408;16.826;2023-05-08T00:25:11;102128.66;;;8.10;66.76
26436;BME280;15351;52.408;16.826;2023-05-08T00:27:37;102127.39;;;8.08;66.83
26436;BME280;15351;52.408;16.826;2023-05-08T00:30:06;102125.73;;;8.04;66.85
26436;BME280;15351;52.408;16.826;2023-05-08T00:32:36;102123.42;;;8.04;66.93
26436;BME280;15351;52.408;16.826;2023-05-08T00:35:03;102124.92;;;8.03;67.00
26436;BME280;15351;52.408;16.826;2023-05-08T00:37:30;102127.34;;;8.01;66.84
26436;BME280;15351;52.408;16.826;2023-05-08T00:39:56;102126.11;;;7.99;66.95
26436;BME280;15351;52.408;16.826;2023-05-08T00:42:22;102127.41;;;7.96;66.89
26436;BME280;15351;52.408;16.826;2023-05-08T00:44:48;102130.34;;;7.93;66.94
26436;BME280;15351;52.408;16.826;2023-05-08T00:47:15;102126.02;;;7.91;67.11
26436;BME280;15351;52.408;16.826;2023-05-08T00:49:42;102129.69;;;7.92;67.08
26436;BME280;15351;52.408;16.826;2023-05-08T00:52:08;102131.92;;;7.91;67.10
26436;BME280;15351;52.408;16.826;2023-05-08T00:54:37;102132.66;;;7.89;66.88
26436;BME280;15351;52.408;16.826;2023-05-08T00:57:06;102132.85;;;7.84;66.82
26436;BME280;15351;52.408;16.826;2023-05-08T00:59:35;102133.77;;;7.81;66.89
26436;BME280;15351;52.408;16.826;2023-05-08T01:02:04;102135.11;;;7.80;67.12
26436;BME280;15351;52.408;16.826;2023-05-08T01:04:33;102131.25;;;7.77;67.00
26436;BME280;15351;52.408;16.826;2023-05-08T01:07:01;102131.67;;;7.74;67.03
26436;BME280;15351;52.408;16.826;2023-05-08T01:09:28;102137.34;;;7.71;67.01
26436;BME280;15351;52.408;16.826;2023-05-08T01:12:09;102137.83;;;7.67;67.22
26436;BME280;15351;52.408;16.826;2023-05-08T01:15:15;102142.98;;;7.65;67.24
26436;BME280;15351;52.408;16.826;2023-05-08T01:26:41;102151.52;;;7.54;67.06
26436;BME280;15351;52.408;16.826;2023-05-08T01:32:25;102152.44;;;7.51;67.24
26436;BME280;15351;52.408;16.826;2023-05-08T01:35:08;102157.00;;;7.48;67.17
26436;BME280;15351;52.408;16.826;2023-05-08T01:40:52;102155.98;;;7.40;67.11
26436;BME280;15351;52.408;16.826;2023-05-08T01:43:29;102157.88;;;7.39;67.38
26436;BME280;15351;52.408;16.826;2023-05-08T01:46:04;102157.15;;;7.37;67.29
26436;BME280;15351;52.408;16.826;2023-05-08T01:48:34;102161.23;;;7.35;67.38
26436;BME280;15351;52.408;16.826;2023-05-08T01:51:09;102168.90;;;7.30;67.26
26436;BME280;15351;52.408;16.826;2023-05-08T01:53:41;102166.08;;;7.28;67.46
26436;BME280;15351;52.408;16.826;2023-05-08T01:56:22;102168.19;;;7.30;67.58
26436;BME280;15351;52.408;16.826;2023-05-08T01:58:55;102168.31;;;7.31;67.59
26436;BME280;15351;52.408;16.826;2023-05-08T02:01:24;102169.39;;;7.31;67.69
26436;BME280;15351;52.408;16.826;2023-05-08T02:03:55;102169.70;;;7.29;67.78
26436;BME280;15351;52.408;16.826;2023-05-08T02:06:21;102170.05;;;7.29;67.95
26436;BME280;15351;52.408;16.826;2023-05-08T02:08:49;102170.67;;;7.33;68.35
26436;BME280;15351;52.408;16.826;2023-05-08T02:11:26;102171.98;;;7.34;68.36
26436;BME280;15351;52.408;16.826;2023-05-08T02:13:57;102170.54;;;7.35;68.35
26436;BME280;15351;52.408;16.826;2023-05-08T02:16:24;102169.39;;;7.33;68.38
26436;BME280;15351;52.408;16.826;2023-05-08T02:18:53;102167.52;;;7.34;68.59
26436;BME280;15351;52.408;16.826;2023-05-08T02:21:24;102166.88;;;7.36;68.70
26436;BME280;15351;52.408;16.826;2023-05-08T02:23:55;102170.77;;;7.39;68.80
26436;BME280;15351;52.408;16.826;2023-05-08T02:26:24;102171.41;;;7.40;68.75
26436;BME280;15351;52.408;16.826;2023-05-08T02:28:53;102171.91;;;7.38;68.66
26436;BME280;15351;52.408;16.826;2023-05-08T02:31:21;102174.42;;;7.38;68.62
26436;BME280;15351;52.408;16.826;2023-05-08T02:33:50;102176.06;;;7.40;68.71
26436;BME280;15351;52.408;16.826;2023-05-08T02:36:19;102177.36;;;7.42;68.86
26436;BME280;15351;52.408;16.826;2023-05-08T02:38:50;102175.09;;;7.41;68.82
26436;BME280;15351;52.408;16.826;2023-05-08T02:41:22;102178.09;;;7.39;68.72
26436;BME280;15351;52.408;16.826;2023-05-08T02:43:55;102175.81;;;7.38;68.60
26436;BME280;15351;52.408;16.826;2023-05-08T02:52:10;102182.77;;;7.36;68.72
26436;BME280;15351;52.408;16.826;2023-05-08T03:00:26;102186.94;;;7.28;68.69
26436;BME280;15351;52.408;16.826;2023-05-08T03:03:06;102189.39;;;7.29;68.74
26436;BME280;15351;52.408;16.826;2023-05-08T03:05:35;102190.48;;;7.29;68.54
26436;BME280;15351;52.408;16.826;2023-05-08T03:08:17;102192.30;;;7.27;68.27
26436;BME280;15351;52.408;16.826;2023-05-08T03:10:50;102193.45;;;7.21;68.37
26436;BME280;15351;52.408;16.826;2023-05-08T03:13:19;102195.19;;;7.19;68.49
26436;BME280;15351;52.408;16.826;2023-05-08T03:18:16;102198.86;;;7.18;68.54
26436;BME280;15351;52.408;16.826;2023-05-08T03:20:47;102197.08;;;7.18;68.35
26436;BME280;15351;52.408;16.826;2023-05-08T03:23:16;102203.58;;;7.14;68.17
26436;BME280;15351;52.408;16.826;2023-05-08T03:25:43;102204.48;;;7.12;68.35
26436;BME280;15351;52.408;16.826;2023-05-08T03:28:16;102207.25;;;7.11;68.50
26436;BME280;15351;52.408;16.826;2023-05-08T03:30:44;102202.78;;;7.11;68.43
26436;BME280;15351;52.408;16.826;2023-05-08T03:33:15;102203.21;;;7.10;68.34
26436;BME280;15351;52.408;16.826;2023-05-08T03:35:44;102201.77;;;7.08;68.21
26436;BME280;15351;52.408;16.826;2023-05-08T03:38:12;102204.96;;;7.06;68.36
26436;BME280;15351;52.408;16.826;2023-05-08T03:40:41;102203.46;;;7.07;68.41
26436;BME280;15351;52.408;16.826;2023-05-08T03:43:09;102206.61;;;7.08;68.43
26436;BME280;15351;52.408;16.826;2023-05-08T03:45:38;102209.70;;;7.09;68.52
26436;BME280;15351;52.408;16.826;2023-05-08T03:48:08;102212.01;;;7.09;68.45
26436;BME280;15351;52.408;16.826;2023-05-08T03:50:37;102210.81;;;7.06;68.42
26436;BME280;15351;52.408;16.826;2023-05-08T03:53:04;102210.67;;;7.06;68.58
26436;BME280;15351;52.408;16.826;2023-05-08T03:55:32;102211.17;;;7.07;68.75
26436;BME280;15351;52.408;16.826;2023-05-08T03:58:30;102208.16;;;7.06;68.89
26436;BME280;15351;52.408;16.826;2023-05-08T04:01:04;102210.73;;;7.10;69.00
26436;BME280;15351;52.408;16.826;2023-05-08T04:06:28;102212.35;;;7.10;69.22
26436;BME280;15351;52.408;16.826;2023-05-08T04:11:51;102212.84;;;7.18;69.60
26436;BME280;15351;52.408;16.826;2023-05-08T04:14:30;102217.85;;;7.22;69.66
26436;BME280;15351;52.408;16.826;2023-05-08T04:17:02;102216.60;;;7.27;69.93
26436;BME280;15351;52.408;16.826;2023-05-08T04:19:33;102215.48;;;7.32;70.05
26436;BME280;15351;52.408;16.826;2023-05-08T04:22:07;102219.04;;;7.39;70.36
26436;BME280;15351;52.408;16.826;2023-05-08T04:25:07;102218.21;;;7.46;70.56
26436;BME280;15351;52.408;16.826;2023-05-08T04:27:34;102224.21;;;7.51;70.45
26436;BME280;15351;52.408;16.826;2023-05-08T04:30:02;102226.98;;;7.57;70.72
26436;BME280;15351;52.408;16.826;2023-05-08T04:32:29;102229.58;;;7.63;70.91
26436;BME280;15351;52.408;16.826;2023-05-08T04:34:59;102228.86;;;7.72;71.30
26436;BME280;15351;52.408;16.826;2023-05-08T04:37:28;102230.44;;;7.82;71.35
26436;BME280;15351;52.408;16.826;2023-05-08T04:39:57;102229.77;;;7.88;71.41
26436;BME280;15351;52.408;16.826;2023-05-08T04:42:24;102238.94;;;7.97;71.76
26436;BME280;15351;52.408;16.826;2023-05-08T04:44:52;102239.23;;;8.07;72.02
26436;BME280;15351;52.408;16.826;2023-05-08T04:47:20;102240.34;;;8.18;72.24
26436;BME280;15351;52.408;16.826;2023-05-08T04:49:47;102247.12;;;8.27;72.26
26436;BME280;15351;52.408;16.826;2023-05-08T04:52:13;102249.05;;;8.35;72.23
26436;BME280;15351;52.408;16.826;2023-05-08T04:54:40;102250.51;;;8.41;72.29
26436;BME280;15351;52.408;16.826;2023-05-08T04:57:06;102253.48;;;8.51;72.48
26436;BME280;15351;52.408;16.826;2023-05-08T04:59:33;102256.09;;;8.59;72.56
26436;BME280;15351;52.408;16.826;2023-05-08T05:01:59;102263.66;;;8.67;72.36
26436;BME280;15351;52.408;16.826;2023-05-08T05:04:32;102269.70;;;8.77;72.08
26436;BME280;15351;52.408;16.826;2023-05-08T05:07:09;102270.08;;;8.87;72.00
26436;BME280;15351;52.408;16.826;2023-05-08T05:09:37;102271.27;;;8.97;71.90
26436;BME280;15351;52.408;16.826;2023-05-08T05:12:05;102270.61;;;9.05;71.74
26436;BME280;15351;52.408;16.826;2023-05-08T05:14:32;102271.58;;;9.13;71.69
26436;BME280;15351;52.408;16.826;2023-05-08T05:16:59;102271.89;;;9.18;71.42
26436;BME280;15351;52.408;16.826;2023-05-08T05:19:26;102274.28;;;9.23;71.28
26436;BME280;15351;52.408;16.826;2023-05-08T05:21:53;102275.21;;;9.34;71.19
26436;BME280;15351;52.408;16.826;2023-05-08T05:24:20;102277.98;;;9.44;70.64
26436;BME280;15351;52.408;16.826;2023-05-08T05:26:46;102279.23;;;9.52;70.27
26436;BME280;15351;52.408;16.826;2023-05-08T05:29:13;102284.20;;;9.57;69.74
26436;BME280;15351;52.408;16.826;2023-05-08T05:31:40;102287.84;;;9.58;69.52
26436;BME280;15351;52.408;16.826;2023-05-08T05:34:09;102287.52;;;9.62;69.68
26436;BME280;15351;52.408;16.826;2023-05-08T05:36:37;102288.66;;;9.70;69.57
26436;BME280;15351;52.408;16.826;2023-05-08T05:39:06;102286.61;;;9.75;69.22
26436;BME280;15351;52.408;16.826;2023-05-08T05:41:33;102287.02;;;9.81;69.01
26436;BME280;15351;52.408;16.826;2023-05-08T05:44:02;102289.14;;;9.86;68.84
26436;BME280;15351;52.408;16.826;2023-05-08T05:46:28;102285.80;;;9.92;68.66
26436;BME280;15351;52.408;16.826;2023-05-08T05:49:00;102289.92;;;9.97;68.76
26436;BME280;15351;52.408;16.826;2023-05-08T05:51:28;102285.23;;;10.04;68.33
26436;BME280;15351;52.408;16.826;2023-05-08T05:53:55;102286.48;;;10.10;67.79
26436;BME280;15351;52.408;16.826;2023-05-08T05:56:25;102289.25;;;10.16;67.41
26436;BME280;15351;52.408;16.826;2023-05-08T05:58:54;102287.55;;;10.19;67.20
26436;BME280;15351;52.408;16.826;2023-05-08T06:01:23;102288.98;;;10.23;66.90
26436;BME280;15351;52.408;16.826;2023-05-08T06:03:50;102286.66;;;10.27;66.77
26436;BME280;15351;52.408;16.826;2023-05-08T06:06:22;102288.59;;;10.34;66.57
26436;BME280;15351;52.408;16.826;2023-05-08T06:09:11;102288.63;;;10.41;66.03
26436;BME280;15351;52.408;16.826;2023-05-08T06:11:44;102290.98;;;10.47;65.89
26436;BME280;15351;52.408;16.826;2023-05-08T06:14:22;102290.37;;;10.54;65.49
26436;BME280;15351;52.408;16.826;2023-05-08T06:16:50;102289.89;;;10.59;65.16
26436;BME280;15351;52.408;16.826;2023-05-08T06:19:21;102287.17;;;10.64;64.94
26436;BME280;15351;52.408;16.826;2023-05-08T06:22:16;102294.02;;;10.68;64.65
26436;BME280;15351;52.408;16.826;2023-05-08T06:24:44;102289.85;;;10.72;64.71
26436;BME280;15351;52.408;16.826;2023-05-08T06:27:24;102291.21;;;10.79;64.66
26436;BME280;15351;52.408;16.826;2023-05-08T06:30:07;102290.80;;;10.85;63.99
26436;BME280;15351;52.408;16.826;2023-05-08T06:32:39;102293.65;;;10.92;63.68
26436;BME280;15351;52.408;16.826;2023-05-08T06:35:11;102291.85;;;10.98;63.39
26436;BME280;15351;52.408;16.826;2023-05-08T06:37:38;102295.88;;;11.03;63.06
26436;BME280;15351;52.408;16.826;2023-05-08T06:40:05;102298.44;;;11.08;62.99
26436;BME280;15351;52.408;16.826;2023-05-08T06:42:34;102299.20;;;11.12;62.44
26436;BME280;15351;52.408;16.826;2023-05-08T06:45:03;102296.19;;;11.14;61.94
26436;BME280;15351;52.408;16.826;2023-05-08T06:47:29;102296.98;;;11.17;61.81
26436;BME280;15351;52.408;16.826;2023-05-08T06:50:03;102297.61;;;11.22;61.59
26436;BME280;15351;52.408;16.826;2023-05-08T06:52:29;102301.58;;;11.27;61.61
26436;BME280;15351;52.408;16.826;2023-05-08T06:55:12;102300.94;;;11.35;61.70
26436;BME280;15351;52.408;16.826;2023-05-08T06:57:41;102301.27;;;11.39;61.01
26436;BME280;15351;52.408;16.826;2023-05-08T07:00:14;102303.07;;;11.45;60.92
26436;BME280;15351;52.408;16.826;2023-05-08T07:02:44;102301.18;;;11.54;60.65
26436;BME280;15351;52.408;16.826;2023-05-08T07:05:30;102303.92;;;11.63;60.82
26436;BME280;15351;52.408;16.826;2023-05-08T07:08:29;102304.34;;;11.77;60.34
26436;BME280;15351;52.408;16.826;2023-05-08T07:11:28;102306.48;;;11.93;59.78
26436;BME280;15351;52.408;16.826;2023-05-08T07:13:57;102311.52;;;12.07;58.81
26436;BME280;15351;52.408;16.826;2023-05-08T07:16:23;102314.95;;;12.18;58.25
26436;BME280;15351;52.408;16.826;2023-05-08T07:19:17;102311.63;;;12.32;57.69
26436;BME280;15351;52.408;16.826;2023-05-08T07:22:06;102312.05;;;12.43;57.11
26436;BME280;15351;52.408;16.826;2023-05-08T07:24:56;102317.83;;;12.59;56.88
26436;BME280;15351;52.408;16.826;2023-05-08T07:27:32;102315.22;;;12.74;56.66
26436;BME280;15351;52.408;16.826;2023-05-08T07:33:43;102316.63;;;13.05;56.13
26436;BME280;15351;52.408;16.826;2023-05-08T07:36:58;102313.73;;;13.27;56.16
26436;BME280;15351;52.408;16.826;2023-05-08T07:40:17;102317.24;;;13.51;55.91
26436;BME280;15351;52.408;16.826;2023-05-08T07:43:03;102314.25;;;13.70;55.57
26436;BME280;15351;52.408;16.826;2023-05-08T07:45:30;102311.55;;;13.86;55.29
26436;BME280;15351;52.408;16.826;2023-05-08T07:48:17;102311.42;;;14.00;54.93
26436;BME280;15351;52.408;16.826;2023-05-08T07:50:55;102310.06;;;14.13;53.94
26436;BME280;15351;52.408;16.826;2023-05-08T07:53:27;102309.27;;;14.28;54.03
26436;BME280;15351;52.408;16.826;2023-05-08T07:55:55;102305.31;;;14.46;53.97
26436;BME280;15351;52.408;16.826;2023-05-08T07:58:31;102302.17;;;14.60;53.34
26436;BME280;15351;52.408;16.826;2023-05-08T08:01:19;102305.94;;;14.78;52.90
26436;BME280;15351;52.408;16.826;2023-05-08T08:03:54;102307.83;;;14.92;52.59
26436;BME280;15351;52.408;16.826;2023-05-08T08:06:47;102306.42;;;15.04;52.24
26436;BME280;15351;52.408;16.826;2023-05-08T08:09:21;102303.61;;;15.13;51.14
26436;BME280;15351;52.408;16.826;2023-05-08T08:12:06;102298.00;;;15.16;50.80
26436;BME280;15351;52.408;16.826;2023-05-08T08:15:18;102299.41;;;15.28;50.75
26436;BME280;15351;52.408;16.826;2023-05-08T08:17:57;102300.22;;;15.48;50.54
26436;BME280;15351;52.408;16.826;2023-05-08T08:20:34;102297.85;;;15.58;50.00
26436;BME280;15351;52.408;16.826;2023-05-08T08:23:11;102306.01;;;15.66;48.88
26436;BME280;15351;52.408;16.826;2023-05-08T08:25:43;102301.13;;;15.69;48.99
26436;BME280;15351;52.408;16.826;2023-05-08T08:28:18;102302.92;;;15.85;49.08
26436;BME280;15351;52.408;16.826;2023-05-08T08:30:48;102302.93;;;16.00;48.53
26436;BME280;15351;52.408;16.826;2023-05-08T08:33:17;102301.30;;;16.07;48.16
26436;BME280;15351;52.408;16.826;2023-05-08T08:35:44;102294.44;;;16.16;48.33
26436;BME280;15351;52.408;16.826;2023-05-08T08:38:11;102286.36;;;16.26;47.82
26436;BME280;15351;52.408;16.826;2023-05-08T08:40:48;102287.27;;;16.36;47.56
26436;BME280;15351;52.408;16.826;2023-05-08T08:43:22;102288.31;;;16.45;47.56
26436;BME280;15351;52.408;16.826;2023-05-08T08:46:10;102292.55;;;16.58;47.71
26436;BME280;15351;52.408;16.826;2023-05-08T08:48:46;102292.11;;;16.73;47.60
26436;BME280;15351;52.408;16.826;2023-05-08T08:51:33;102297.67;;;16.82;46.26
26436;BME280;15351;52.408;16.826;2023-05-08T08:54:14;102302.59;;;16.86;46.25
26436;BME280;15351;52.408;16.826;2023-05-08T08:57:04;102293.77;;;16.98;46.33
26436;BME280;15351;52.408;16.826;2023-05-08T08:59:39;102286.80;;;17.08;45.77
26436;BME280;15351;52.408;16.826;2023-05-08T09:02:13;102290.20;;;17.13;45.86
26436;BME280;15351;52.408;16.826;2023-05-08T09:04:48;102286.98;;;17.16;44.86
26436;BME280;15351;52.408;16.826;2023-05-08T09:07:28;102284.73;;;17.24;45.51
26436;BME280;15351;52.408;16.826;2023-05-08T09:09:58;102280.41;;;17.39;45.75
26436;BME280;15351;52.408;16.826;2023-05-08T09:12:27;102276.72;;;17.53;45.18
26436;BME280;15351;52.408;16.826;2023-05-08T09:15:16;102275.80;;;17.70;45.53
26436;BME280;15351;52.408;16.826;2023-05-08T09:17:55;102273.45;;;17.90;45.38
26436;BME280;15351;52.408;16.826;2023-05-08T09:20:32;102272.70;;;18.02;44.92
26436;BME280;15351;52.408;16.826;2023-05-08T09:23:10;102270.21;;;18.14;44.84
26436;BME280;15351;52.408;16.826;2023-05-08T09:35:37;102259.09;;;18.79;43.73
26436;BME280;15351;52.408;16.826;2023-05-08T09:38:39;102261.57;;;18.77;43.18
26436;BME280;15351;52.408;16.826;2023-05-08T09:41:21;102253.02;;;18.88;43.34
26436;BME280;15351;52.408;16.826;2023-05-08T09:44:11;102250.31;;;19.04;43.20
26436;BME280;15351;52.408;16.826;2023-05-08T09:47:12;102250.65;;;19.21;43.12
26436;BME280;15351;52.408;16.826;2023-05-08T09:50:22;102250.57;;;19.35;42.14
26436;BME280;15351;52.408;16.826;2023-05-08T09:53:15;102251.95;;;19.40;42.00
26436;BME280;15351;52.408;16.826;2023-05-08T09:55:49;102252.52;;;19.51;42.23
26436;BME280;15351;52.408;16.826;2023-05-08T09:58:42;102253.19;;;19.63;41.10
26436;BME280;15351;52.408;16.826;2023-05-08T10:01:51;102250.59;;;19.67;40.54
26436;BME280;15351;52.408;16.826;2023-05-08T10:04:36;102252.84;;;19.77;41.51
26436;BME280;15351;52.408;16.826;2023-05-08T10:07:10;102251.83;;;19.89;40.28
26436;BME280;15351;52.408;16.826;2023-05-08T10:09:59;102245.33;;;19.94;39.76
26436;BME280;15351;52.408;16.826;2023-05-08T10:12:47;102243.70;;;20.01;39.82
26436;BME280;15351;52.408;16.826;2023-05-08T10:15:13;102243.67;;;20.10;39.37
26436;BME280;15351;52.408;16.826;2023-05-08T10:17:54;102240.63;;;20.09;38.46
26436;BME280;15351;52.408;16.826;2023-05-08T10:20:29;102243.20;;;20.05;38.67
26436;BME280;15351;52.408;16.826;2023-05-08T10:22:57;102236.75;;;20.08;38.19
26436;BME280;15351;52.408;16.826;2023-05-08T10:25:44;102242.20;;;19.97;37.44
26436;BME280;15351;52.408;16.826;2023-05-08T10:28:48;102240.00;;;19.94;37.18
26436;BME280;15351;52.408;16.826;2023-05-08T10:31:34;102240.00;;;20.02;37.35
26436;BME280;15351;52.408;16.826;2023-05-08T10:34:02;102231.02;;;20.06;37.24
26436;BME280;15351;52.408;16.826;2023-05-08T10:36:45;102231.56;;;20.17;38.24
26436;BME280;15351;52.408;16.826;2023-05-08T10:39:16;102230.70;;;20.21;37.13
26436;BME280;15351;52.408;16.826;2023-05-08T10:41:50;102231.20;;;20.20;36.91
26436;BME280;15351;52.408;16.826;2023-05-08T10:44:18;102228.60;;;20.18;37.02
26436;BME280;15351;52.408;16.826;2023-05-08T10:46:56;102228.73;;;20.26;37.53
26436;BME280;15351;52.408;16.826;2023-05-08T10:54:01;102218.56;;;20.34;36.81
26436;BME280;15351;52.408;16.826;2023-05-08T10:57:23;102215.97;;;20.42;36.94
26436;BME280;15351;52.408;16.826;2023-05-08T11:00:14;102218.14;;;20.53;36.48
26436;BME280;15351;52.408;16.826;2023-05-08T11:02:44;102217.06;;;20.45;35.91
26436;BME280;15351;52.408;16.826;2023-05-08T11:05:47;102214.50;;;20.28;35.45
26436;BME280;15351;52.408;16.826;2023-05-08T11:08:44;102216.61;;;20.21;36.17
26436;BME280;15351;52.408;16.826;2023-05-08T11:11:23;102216.64;;;20.23;36.06
26436;BME280;15351;52.408;16.826;2023-05-08T11:14:23;102204.89;;;20.26;36.55
26436;BME280;15351;52.408;16.826;2023-05-08T11:23:58;102193.88;;;20.53;37.43
26436;BME280;15351;52.408;16.826;2023-05-08T11:27:07;102181.23;;;20.60;37.40
26436;BME280;15351;52.408;16.826;2023-05-08T11:30:24;102181.11;;;20.56;36.84
26436;BME280;15351;52.408;16.826;2023-05-08T11:36:23;102175.81;;;20.73;36.90
26436;BME280;15351;52.408;16.826;2023-05-08T11:39:25;102175.33;;;20.75;36.52
26436;BME280;15351;52.408;16.826;2023-05-08T11:42:35;102174.66;;;20.80;36.78
26436;BME280;15351;52.408;16.826;2023-05-08T11:45:39;102175.36;;;20.90;36.93
26436;BME280;15351;52.408;16.826;2023-05-08T11:48:13;102171.43;;;20.95;36.23
26436;BME280;15351;52.408;16.826;2023-05-08T11:50:41;102174.39;;;20.98;35.95
26436;BME280;15351;52.408;16.826;2023-05-08T11:53:09;102169.71;;;20.95;35.58
26436;BME280;15351;52.408;16.826;2023-05-08T11:55:35;102168.52;;;20.89;35.88
26436;BME280;15351;52.408;16.826;2023-05-08T11:58:31;102174.12;;;20.86;35.75
26436;BME280;15351;52.408;16.826;2023-05-08T12:00:58;102165.33;;;20.83;35.84
26436;BME280;15351;52.408;16.826;2023-05-08T12:03:27;102159.82;;;20.87;35.90
26436;BME280;15351;52.408;16.826;2023-05-08T12:05:58;102165.69;;;20.83;35.72
26436;BME280;15351;52.408;16.826;2023-05-08T12:08:30;102156.08;;;20.69;35.33
26436;BME280;15351;52.408;16.826;2023-05-08T12:11:06;102149.63;;;20.61;35.79
26436;BME280;15351;52.408;16.826;2023-05-08T12:13:49;102160.77;;;20.61;36.15
26436;BME280;15351;52.408;16.826;2023-05-08T12:16:17;102156.44;;;20.68;36.41
26436;BME280;15351;52.408;16.826;2023-05-08T12:18:52;102158.14;;;20.59;35.61
26436;BME280;15351;52.408;16.826;2023-05-08T12:21:30;102161.66;;;20.49;35.71
26436;BME280;15351;52.408;16.826;2023-05-08T12:23:59;102160.86;;;20.41;35.79
26436;BME280;15351;52.408;16.826;2023-05-08T12:26:37;102157.10;;;20.34;35.89
26436;BME280;15351;52.408;16.826;2023-05-08T12:29:07;102157.80;;;20.37;36.72
26436;BME280;15351;52.408;16.826;2023-05-08T12:31:40;102154.85;;;20.44;37.43
26436;BME280;15351;52.408;16.826;2023-05-08T12:34:07;102155.56;;;20.50;37.14
26436;BME280;15351;52.408;16.826;2023-05-08T12:36:38;102151.04;;;20.52;36.69
26436;BME280;15351;52.408;16.826;2023-05-08T12:39:16;102149.20;;;20.56;37.29
26436;BME280;15351;52.408;16.826;2023-05-08T12:41:53;102155.48;;;20.60;36.63
26436;BME280;15351;52.408;16.826;2023-05-08T12:44:29;102143.05;;;20.45;35.55
26436;BME280;15351;52.408;16.826;2023-05-08T12:47:06;102146.11;;;20.27;35.39
26436;BME280;15351;52.408;16.826;2023-05-08T12:49:44;102153.38;;;20.10;35.46
26436;BME280;15351;52.408;16.826;2023-05-08T12:52:27;102143.83;;;20.08;36.02
26436;BME280;15351;52.408;16.826;2023-05-08T12:54:56;102137.84;;;20.07;36.37
26436;BME280;15351;52.408;16.826;2023-05-08T12:57:22;102137.45;;;20.12;36.39
26436;BME280;15351;52.408;16.826;2023-05-08T12:59:48;102136.30;;;20.15;36.56
26436;BME280;15351;52.408;16.826;2023-05-08T13:02:17;102143.02;;;20.16;36.38
26436;BME280;15351;52.408;16.826;2023-05-08T13:04:46;102138.17;;;20.13;36.07
26436;BME280;15351;52.408;16.826;2023-05-08T13:07:22;102136.59;;;19.98;35.24
26436;BME280;15351;52.408;16.826;2023-05-08T13:09:59;102136.11;;;19.79;35.57
26436;BME280;15351;52.408;16.826;2023-05-08T13:12:44;102134.29;;;19.74;36.18
26436;BME280;15351;52.408;16.826;2023-05-08T13:15:18;102129.70;;;19.75;35.87
26436;BME280;15351;52.408;16.826;2023-05-08T13:17:55;102130.10;;;19.73;35.88
26436;BME280;15351;52.408;16.826;2023-05-08T13:20:22;102115.48;;;19.70;35.80
26436;BME280;15351;52.408;16.826;2023-05-08T13:22:49;102115.02;;;19.68;35.95
26436;BME280;15351;52.408;16.826;2023-05-08T13:25:18;102114.14;;;19.69;35.93
26436;BME280;15351;52.408;16.826;2023-05-08T13:27:47;102111.93;;;19.66;35.66
26436;BME280;15351;52.408;16.826;2023-05-08T13:30:24;102115.64;;;19.62;35.62
26436;BME280;15351;52.408;16.826;2023-05-08T13:32:51;102116.25;;;19.60;35.49
26436;BME280;15351;52.408;16.826;2023-05-08T13:35:19;102114.41;;;19.52;34.98
26436;BME280;15351;52.408;16.826;2023-05-08T13:37:48;102111.77;;;19.43;35.27
26436;BME280;15351;52.408;16.826;2023-05-08T13:40:22;102108.74;;;19.43;35.45
26436;BME280;15351;52.408;16.826;2023-05-08T13:42:49;102109.99;;;19.45;35.80
26436;BME280;15351;52.408;16.826;2023-05-08T13:45:28;102101.86;;;19.45;35.38
26436;BME280;15351;52.408;16.826;2023-05-08T13:47:55;102102.30;;;19.35;35.03
26436;BME280;15351;52.408;16.826;2023-05-08T13:50:22;102094.46;;;19.31;35.21
26436;BME280;15351;52.408;16.826;2023-05-08T13:52:48;102087.69;;;19.23;35.05
26436;BME280;15351;52.408;16.826;2023-05-08T13:55:17;102086.34;;;19.19;35.41
26436;BME280;15351;52.408;16.826;2023-05-08T13:58:00;102082.85;;;19.21;35.42
26436;BME280;15351;52.408;16.826;2023-05-08T14:00:27;102084.55;;;19.18;35.35
26436;BME280;15351;52.408;16.826;2023-05-08T14:02:53;102079.84;;;19.14;35.88
26436;BME280;15351;52.408;16.826;2023-05-08T14:05:20;102081.05;;;19.11;35.93
26436;BME280;15351;52.408;16.826;2023-05-08T14:07:50;102078.55;;;19.02;35.21
26436;BME280;15351;52.408;16.826;2023-05-08T14:10:21;102083.54;;;18.88;35.36
26436;BME280;15351;52.408;16.826;2023-05-08T14:12:48;102086.35;;;18.76;35.33
26436;BME280;15351;52.408;16.826;2023-05-08T14:15:44;102084.60;;;18.76;36.22
26436;BME280;15351;52.408;16.826;2023-05-08T14:18:28;102078.87;;;18.72;36.10
26436;BME280;15351;52.408;16.826;2023-05-08T14:21:08;102074.98;;;18.65;35.94
26436;BME280;15351;52.408;16.826;2023-05-08T14:23:37;102073.20;;;18.64;35.99
26436;BME280;15351;52.408;16.826;2023-05-08T14:29:06;102072.31;;;18.59;35.23